createdAt,value
2023-05-01T00:02:16.787Z,9.67
2023-05-01T00:04:45.517Z,10.10
2023-05-01T00:07:14.201Z,9.50
2023-05-01T00:09:44.341Z,9.80
2023-05-01T00:12:13.083Z,9.80
2023-05-01T00:14:41.965Z,9.80
2023-05-01T00:17:10.964Z,10.33
2023-05-01T00:19:39.517Z,10.37
2023-05-01T00:22:08.294Z,9.87
2023-05-01T00:24:36.897Z,9.57
2023-05-01T00:27:06.837Z,9.57
2023-05-01T00:29:35.321Z,9.07
2023-05-01T00:32:05.833Z,10.17
2023-05-01T00:34:34.772Z,8.73
2023-05-01T00:37:03.673Z,9.50
2023-05-01T00:39:32.216Z,8.50
2023-05-01T00:42:00.777Z,9.03
2023-05-01T00:44:30.864Z,9.20
2023-05-01T00:47:00.948Z,8.30
2023-05-01T00:49:29.954Z,9.20
2023-05-01T00:51:58.626Z,8.87
2023-05-01T00:54:28.176Z,9.37
2023-05-01T00:56:57.255Z,8.87
2023-05-01T00:59:25.767Z,9.30
2023-05-01T01:01:56.563Z,9.37
2023-05-01T01:04:26.131Z,9.17
2023-05-01T01:07:00.271Z,9.23
2023-05-01T01:09:36.438Z,10.00
2023-05-01T01:12:11.082Z,10.13
2023-05-01T01:14:44.191Z,10.77
2023-05-01T01:17:20.182Z,10.23
2023-05-01T01:20:15.435Z,11.17
2023-05-01T01:22:47.636Z,10.83
2023-05-01T01:25:52.222Z,10.90
2023-05-01T01:28:42.126Z,10.50
2023-05-01T01:31:19.683Z,10.73
2023-05-01T01:34:03.656Z,10.87
2023-05-01T01:36:48.569Z,9.97
2023-05-01T01:39:28.809Z,10.57
2023-05-01T01:42:00.563Z,10.33
2023-05-01T01:44:34.926Z,9.73
2023-05-01T01:47:07.428Z,9.83
2023-05-01T01:49:39.900Z,10.00
2023-05-01T01:52:09.709Z,10.53
2023-05-01T01:54:42.065Z,9.80
2023-05-01T01:57:14.077Z,9.60
2023-05-01T01:59:43.240Z,10.93
2023-05-01T02:02:12.790Z,9.77
2023-05-01T02:04:44.186Z,10.30
2023-05-01T02:07:14.431Z,11.07
2023-05-01T02:09:44.438Z,9.47
2023-05-01T02:12:14.141Z,9.53
2023-05-01T02:14:43.409Z,8.70
2023-05-01T02:17:12.192Z,10.00
2023-05-01T02:19:42.631Z,9.27
2023-05-01T02:22:12.166Z,9.07
2023-05-01T02:24:41.774Z,9.17
2023-05-01T02:27:15.136Z,9.43
2023-05-01T02:29:44.421Z,8.33
2023-05-01T02:32:13.603Z,8.93
2023-05-01T02:34:43.506Z,9.03
2023-05-01T02:37:13.409Z,9.17
2023-05-01T02:39:44.341Z,8.10
2023-05-01T02:42:16.218Z,8.60
2023-05-01T02:44:48.472Z,8.17
2023-05-01T02:47:20.963Z,8.03
2023-05-01T02:49:53.004Z,7.53
2023-05-01T02:52:22.945Z,6.97
2023-05-01T02:54:57.538Z,7.60
2023-05-01T02:57:26.234Z,7.30
2023-05-01T02:59:54.964Z,7.10
2023-05-01T03:02:23.738Z,7.53
2023-05-01T03:04:53.616Z,7.20
2023-05-01T03:07:23.314Z,6.73
2023-05-01T03:09:51.899Z,6.90
2023-05-01T03:12:20.609Z,7.83
2023-05-01T03:14:49.316Z,6.83
2023-05-01T03:17:18.194Z,7.10
2023-05-01T03:19:47.066Z,6.77
2023-05-01T03:22:17.116Z,7.47
2023-05-01T03:24:47.643Z,7.03
2023-05-01T03:27:16.442Z,7.10
2023-05-01T03:29:45.267Z,6.60
2023-05-01T03:32:14.661Z,7.20
2023-05-01T03:34:43.501Z,6.87
2023-05-01T03:37:12.253Z,6.13
2023-05-01T03:39:42.252Z,7.07
2023-05-01T03:42:31.212Z,7.20
2023-05-01T03:45:06.293Z,6.73
2023-05-01T03:47:35.207Z,6.20
2023-05-01T03:50:03.860Z,6.87
2023-05-01T03:52:33.454Z,6.43
2023-05-01T03:55:03.816Z,6.67
2023-05-01T03:57:43.089Z,7.17
2023-05-01T04:00:13.751Z,6.37
2023-05-01T04:02:45.863Z,5.97
2023-05-01T04:05:19.519Z,6.43
2023-05-01T04:07:53.022Z,6.33
2023-05-01T04:10:23.266Z,6.67
2023-05-01T04:12:57.817Z,5.70
2023-05-01T04:15:26.459Z,6.03
2023-05-01T04:17:56.866Z,5.47
2023-05-01T04:20:25.783Z,5.43
2023-05-01T04:22:55.052Z,5.53
2023-05-01T04:25:25.193Z,5.63
2023-05-01T04:27:58.590Z,5.37
2023-05-01T04:30:27.194Z,5.50
2023-05-01T04:32:56.264Z,5.33
2023-05-01T04:35:25.640Z,5.07
2023-05-01T04:37:54.786Z,5.13
2023-05-01T04:40:24.823Z,4.73
2023-05-01T04:42:53.445Z,4.53
2023-05-01T04:45:21.969Z,3.20
2023-05-01T04:47:50.672Z,4.37
2023-05-01T04:50:19.111Z,3.33
2023-05-01T04:52:48.455Z,3.50
2023-05-01T04:55:17.509Z,3.60
2023-05-01T04:58:05.163Z,3.93
2023-05-01T05:00:35.759Z,3.43
2023-05-01T05:03:04.966Z,3.67
2023-05-01T05:05:33.935Z,2.97
2023-05-01T05:08:03.173Z,2.93
2023-05-01T05:10:39.968Z,3.90
2023-05-01T05:13:33.642Z,3.50
2023-05-01T05:16:05.650Z,3.70
2023-05-01T05:18:34.590Z,3.73
2023-05-01T05:21:05.868Z,3.70
2023-05-01T05:23:34.708Z,3.50
2023-05-01T05:26:03.735Z,3.33
2023-05-01T05:28:34.437Z,3.93
2023-05-01T05:31:03.323Z,3.40
2023-05-01T05:33:32.138Z,3.10
2023-05-01T05:36:01.040Z,3.20
2023-05-01T05:38:35.437Z,3.20
2023-05-01T05:41:05.970Z,3.20
2023-05-01T05:43:37.403Z,3.20
2023-05-01T05:46:07.404Z,3.50
2023-05-01T05:48:38.089Z,3.43
2023-05-01T05:51:06.824Z,3.30
2023-05-01T05:53:36.300Z,3.67
2023-05-01T05:56:05.885Z,3.63
2023-05-01T05:58:35.969Z,3.03
2023-05-01T06:01:05.799Z,3.47
2023-05-01T06:03:36.283Z,3.50
2023-05-01T06:06:05.419Z,3.90
2023-05-01T06:08:35.622Z,3.63
2023-05-01T06:11:07.225Z,2.90
2023-05-01T06:13:40.168Z,3.33
2023-05-01T06:16:09.286Z,3.27
2023-05-01T06:18:38.061Z,3.30
2023-05-01T06:21:07.412Z,2.90
2023-05-01T06:23:36.603Z,3.13
2023-05-01T06:26:23.928Z,3.03
2023-05-01T06:28:54.627Z,3.00
2023-05-01T06:31:23.564Z,3.20
2023-05-01T06:33:56.478Z,2.70
2023-05-01T06:36:32.088Z,3.13
2023-05-01T06:39:00.723Z,3.60
2023-05-01T06:41:29.226Z,2.57
2023-05-01T06:43:59.699Z,2.90
2023-05-01T06:46:28.472Z,2.70
2023-05-01T06:48:57.120Z,2.70
2023-05-01T06:51:26.014Z,2.53
2023-05-01T06:53:54.810Z,2.70
2023-05-01T06:56:24.389Z,2.30
2023-05-01T06:58:52.896Z,2.80
2023-05-01T07:01:22.956Z,2.90
2023-05-01T07:03:51.574Z,2.40
2023-05-01T07:06:20.215Z,2.90
2023-05-01T07:08:49.513Z,2.40
2023-05-01T07:11:18.034Z,2.75
2023-05-01T07:13:46.746Z,2.60
2023-05-01T07:16:15.695Z,2.35
2023-05-01T07:18:45.840Z,2.30
2023-05-01T07:21:14.367Z,2.30
2023-05-01T07:23:43.044Z,2.47
2023-05-01T07:26:11.622Z,2.30
2023-05-01T07:28:41.715Z,2.58
2023-05-01T07:31:11.551Z,2.30
2023-05-01T07:33:40.103Z,2.50
2023-05-01T07:36:10.626Z,2.30
2023-05-01T07:38:39.260Z,2.63
2023-05-01T07:41:07.814Z,2.60
2023-05-01T07:43:36.506Z,2.55
2023-05-01T07:46:06.183Z,2.13
2023-05-01T07:48:35.627Z,2.40
2023-05-01T07:51:06.000Z,2.80
2023-05-01T07:53:36.128Z,2.30
2023-05-01T07:56:09.059Z,2.15
2023-05-01T07:58:38.223Z,2.50
2023-05-01T08:01:07.965Z,2.45
2023-05-01T08:03:36.855Z,2.30
2023-05-01T08:06:05.855Z,2.40
2023-05-01T08:08:35.944Z,2.80
2023-05-01T08:11:04.537Z,2.30
2023-05-01T08:13:33.065Z,2.20
2023-05-01T08:16:05.671Z,3.33
2023-05-01T08:18:34.255Z,2.70
2023-05-01T08:21:02.701Z,2.40
2023-05-01T08:23:31.317Z,2.60
2023-05-01T08:26:01.453Z,2.53
2023-05-01T08:28:30.329Z,2.60
2023-05-01T08:30:58.946Z,2.50
2023-05-01T08:33:27.654Z,2.60
2023-05-01T08:35:56.226Z,2.40
2023-05-01T08:38:24.962Z,2.60
2023-05-01T08:40:56.648Z,2.63
2023-05-01T08:43:28.102Z,2.50
2023-05-01T08:45:57.929Z,2.40
2023-05-01T08:48:27.534Z,3.33
2023-05-01T08:50:58.788Z,2.53
2023-05-01T08:53:28.388Z,2.60
2023-05-01T08:55:57.705Z,2.20
2023-05-01T08:58:28.347Z,2.43
2023-05-01T09:00:58.327Z,2.33
2023-05-01T09:03:28.944Z,2.30
2023-05-01T09:05:58.421Z,2.67
2023-05-01T09:08:27.660Z,3.67
2023-05-01T09:10:58.443Z,3.77
2023-05-01T09:13:28.941Z,2.60
2023-05-01T09:15:57.519Z,2.50
2023-05-01T09:18:26.454Z,2.60
2023-05-01T09:20:55.805Z,2.70
2023-05-01T09:23:24.587Z,2.70
2023-05-01T09:25:53.385Z,2.80
2023-05-01T09:28:43.043Z,2.73
2023-05-01T09:31:25.158Z,2.53
2023-05-01T09:33:55.339Z,2.47
2023-05-01T09:36:25.275Z,2.13
2023-05-01T09:38:54.113Z,4.13
2023-05-01T09:41:22.685Z,3.13
2023-05-01T09:43:53.661Z,2.37
2023-05-01T09:46:23.757Z,2.40
2023-05-01T09:48:57.069Z,3.13
2023-05-01T09:51:28.083Z,5.20
2023-05-01T09:53:58.921Z,3.40
2023-05-01T09:56:28.151Z,2.60
2023-05-01T09:58:59.992Z,2.97
2023-05-01T10:01:41.680Z,2.90
2023-05-01T10:04:10.886Z,2.43
2023-05-01T10:06:40.471Z,2.70
2023-05-01T10:09:16.873Z,2.50
2023-05-01T10:11:49.794Z,2.63
2023-05-01T10:14:20.496Z,2.30
2023-05-01T10:16:49.609Z,2.40
2023-05-01T10:19:19.272Z,2.80
2023-05-01T10:21:48.276Z,2.53
2023-05-01T10:24:18.691Z,2.30
2023-05-01T10:26:49.980Z,2.57
2023-05-01T10:29:21.811Z,2.40
2023-05-01T10:31:50.534Z,2.47
2023-05-01T10:34:19.979Z,2.43
2023-05-01T10:36:51.686Z,2.57
2023-05-01T10:39:33.059Z,2.63
2023-05-01T10:42:05.578Z,2.30
2023-05-01T10:44:36.163Z,2.50
2023-05-01T10:47:41.529Z,2.30
2023-05-01T10:50:11.533Z,2.40
2023-05-01T10:53:17.629Z,2.13
2023-05-01T10:55:48.190Z,2.20
2023-05-01T10:58:56.042Z,2.57
2023-05-01T11:01:33.856Z,2.20
2023-05-01T11:04:05.389Z,2.63
2023-05-01T11:06:34.496Z,2.17
2023-05-01T11:09:04.640Z,2.40
2023-05-01T11:11:51.771Z,2.57
2023-05-01T11:14:20.357Z,2.17
2023-05-01T11:16:50.501Z,2.43
2023-05-01T11:19:51.219Z,2.40
2023-05-01T11:22:20.465Z,2.00
2023-05-01T11:24:49.098Z,2.40
2023-05-01T11:27:18.462Z,2.33
2023-05-01T11:29:48.849Z,2.10
2023-05-01T11:32:21.337Z,2.07
2023-05-01T11:34:51.274Z,2.27
2023-05-01T11:37:20.240Z,2.70
2023-05-01T11:39:51.000Z,2.03
2023-05-01T11:42:23.680Z,2.67
2023-05-01T11:45:11.101Z,2.07
2023-05-01T11:47:41.512Z,2.00
2023-05-01T11:50:11.592Z,2.47
2023-05-01T11:52:45.121Z,2.40
2023-05-01T11:55:13.811Z,2.17
2023-05-01T11:57:50.154Z,2.67
2023-05-01T12:00:28.178Z,2.50
2023-05-01T12:03:04.232Z,2.07
2023-05-01T12:05:35.551Z,1.80
2023-05-01T12:08:14.610Z,2.20
2023-05-01T12:10:44.626Z,2.13
2023-05-01T12:13:14.947Z,2.50
2023-05-01T12:15:45.555Z,1.87
2023-05-01T12:18:16.380Z,2.30
2023-05-01T12:20:46.224Z,2.30
2023-05-01T12:23:17.252Z,2.30
2023-05-01T12:25:46.751Z,2.13
2023-05-01T12:28:18.320Z,2.40
2023-05-01T12:30:47.733Z,2.40
2023-05-01T12:33:18.921Z,2.47
2023-05-01T12:35:50.082Z,2.30
2023-05-01T12:38:20.771Z,2.03
2023-05-01T12:40:54.439Z,2.40
2023-05-01T12:43:24.563Z,2.33
2023-05-01T12:45:54.721Z,2.33
2023-05-01T12:48:26.004Z,2.10
2023-05-01T12:50:55.612Z,2.30
2023-05-01T12:53:25.200Z,2.07
2023-05-01T12:55:54.664Z,2.53
2023-05-01T12:58:23.380Z,2.63
2023-05-01T13:00:53.320Z,2.50
2023-05-01T13:03:27.104Z,2.40
2023-05-01T13:05:57.654Z,2.50
2023-05-01T13:08:31.769Z,2.20
2023-05-01T13:11:01.220Z,2.20
2023-05-01T13:13:33.069Z,2.30
2023-05-01T13:16:06.370Z,2.30
2023-05-01T13:18:38.609Z,1.87
2023-05-01T13:21:09.773Z,2.47
2023-05-01T13:23:39.154Z,2.20
2023-05-01T13:26:08.970Z,2.20
2023-05-01T13:28:38.912Z,2.07
2023-05-01T13:31:14.136Z,2.60
2023-05-01T13:33:44.686Z,2.30
2023-05-01T13:36:25.424Z,2.70
2023-05-01T13:38:57.572Z,2.13
2023-05-01T13:41:27.390Z,1.90
2023-05-01T13:43:58.084Z,2.10
2023-05-01T13:46:28.336Z,2.30
2023-05-01T13:49:00.380Z,2.17
2023-05-01T13:51:29.023Z,2.27
2023-05-01T13:53:57.639Z,2.40
2023-05-01T13:56:26.192Z,2.07
2023-05-01T13:58:54.760Z,2.10
2023-05-01T14:01:24.281Z,2.50
2023-05-01T14:03:52.895Z,2.37
2023-05-01T14:06:24.262Z,1.97
2023-05-01T14:08:54.532Z,2.40
2023-05-01T14:11:23.297Z,2.50
2023-05-01T14:13:52.278Z,2.60
2023-05-01T14:16:25.922Z,2.60
2023-05-01T14:18:56.872Z,2.50
2023-05-01T14:21:28.639Z,2.23
2023-05-01T14:23:58.350Z,2.17
2023-05-01T14:26:27.033Z,2.13
2023-05-01T14:28:55.985Z,1.80
2023-05-01T14:31:29.480Z,1.80
2023-05-01T14:33:59.531Z,2.10
2023-05-01T14:36:32.623Z,1.77
2023-05-01T14:39:02.291Z,2.07
2023-05-01T14:41:31.660Z,2.17
2023-05-01T14:44:00.122Z,2.20
2023-05-01T14:46:31.302Z,2.37
2023-05-01T14:49:00.995Z,2.10
2023-05-01T14:51:33.007Z,1.90
2023-05-01T14:54:01.645Z,2.10
2023-05-01T14:56:30.160Z,1.80
2023-05-01T14:59:00.198Z,2.00
2023-05-01T15:01:28.995Z,1.77
2023-05-01T15:03:58.452Z,2.00
2023-05-01T15:06:28.385Z,2.00
2023-05-01T15:08:58.545Z,1.90
2023-05-01T15:11:27.156Z,2.10
2023-05-01T15:13:56.422Z,1.70
2023-05-01T15:16:25.195Z,1.90
2023-05-01T15:18:53.891Z,2.07
2023-05-01T15:21:22.576Z,1.93
2023-05-01T15:23:51.190Z,1.60
2023-05-01T15:26:21.500Z,2.23
2023-05-01T15:28:50.122Z,2.00
2023-05-01T15:31:19.455Z,2.30
2023-05-01T15:33:48.423Z,1.83
2023-05-01T15:36:16.935Z,2.00
2023-05-01T15:38:45.672Z,2.10
2023-05-01T15:41:16.274Z,2.03
2023-05-01T15:43:47.946Z,2.00
2023-05-01T15:46:18.343Z,2.00
2023-05-01T15:48:47.435Z,2.30
2023-05-01T15:51:17.141Z,2.17
2023-05-01T15:53:46.079Z,2.17
2023-05-01T15:56:14.657Z,1.97
2023-05-01T15:58:43.551Z,2.30
2023-05-01T16:01:15.321Z,1.90
2023-05-01T16:03:47.067Z,2.00
2023-05-01T16:06:17.069Z,1.90
2023-05-01T16:08:45.879Z,2.13
2023-05-01T16:11:14.348Z,2.20
2023-05-01T16:13:43.440Z,2.20
2023-05-01T16:16:14.670Z,2.10
2023-05-01T16:18:44.986Z,1.90
2023-05-01T16:21:13.737Z,2.40
2023-05-01T16:23:42.277Z,2.83
2023-05-01T16:26:11.682Z,2.67
2023-05-01T16:28:40.456Z,2.90
2023-05-01T16:31:23.608Z,3.97
2023-05-01T16:33:57.005Z,3.60
2023-05-01T16:36:25.736Z,3.70
2023-05-01T16:38:54.335Z,2.97
2023-05-01T16:41:23.152Z,3.73
2023-05-01T16:43:52.111Z,4.30
2023-05-01T16:46:20.876Z,4.37
2023-05-01T16:48:49.608Z,4.13
2023-05-01T16:51:20.323Z,4.63
2023-05-01T16:53:48.813Z,3.80
2023-05-01T16:56:17.523Z,3.40
2023-05-01T16:58:46.519Z,4.00
2023-05-01T17:01:15.668Z,3.43
2023-05-01T17:03:44.317Z,3.60
2023-05-01T17:06:12.919Z,3.53
2023-05-01T17:08:43.687Z,3.67
2023-05-01T17:11:14.529Z,3.20
2023-05-01T17:13:43.132Z,2.83
2023-05-01T17:16:11.854Z,3.37
2023-05-01T17:18:40.489Z,3.10
2023-05-01T17:21:09.704Z,3.53
2023-05-01T17:23:38.268Z,2.90
2023-05-01T17:26:08.518Z,3.13
2023-05-01T17:28:36.886Z,2.97
2023-05-01T17:31:05.605Z,2.80
2023-05-01T17:33:34.326Z,2.80
2023-05-01T17:36:03.014Z,3.20
2023-05-01T17:38:31.721Z,3.10
2023-05-01T17:41:00.362Z,3.10
2023-05-01T17:43:30.624Z,3.43
2023-05-01T17:45:59.488Z,3.10
2023-05-01T17:48:28.058Z,2.97
2023-05-01T17:50:56.614Z,3.33
2023-05-01T17:53:25.327Z,3.47
2023-05-01T17:55:54.062Z,3.53
2023-05-01T17:58:22.777Z,3.83
2023-05-01T18:00:52.875Z,3.60
2023-05-01T18:03:21.878Z,3.93
2023-05-01T18:05:50.621Z,3.23
2023-05-01T18:08:19.147Z,3.33
2023-05-01T18:10:47.722Z,2.90
2023-05-01T18:13:16.808Z,3.57
2023-05-01T18:15:45.547Z,4.40
2023-05-01T18:18:15.770Z,3.80
2023-05-01T18:20:45.168Z,3.40
2023-05-01T18:23:13.903Z,3.67
2023-05-01T18:25:42.381Z,3.70
2023-05-01T18:28:10.950Z,3.80
2023-05-01T18:30:39.458Z,4.17
2023-05-01T18:33:08.072Z,5.00
2023-05-01T18:35:39.925Z,5.20
2023-05-01T18:38:08.922Z,4.43
2023-05-01T18:40:37.954Z,4.87
2023-05-01T18:43:06.681Z,4.70
2023-05-01T18:45:35.460Z,4.40
2023-05-01T18:48:04.309Z,4.43
2023-05-01T18:50:33.103Z,4.40
2023-05-01T18:53:03.180Z,4.37
2023-05-01T18:55:33.151Z,4.43
2023-05-01T18:58:02.172Z,4.37
2023-05-01T19:00:30.953Z,4.37
2023-05-01T19:03:00.117Z,4.37
2023-05-01T19:05:28.833Z,3.97
2023-05-01T19:08:01.751Z,4.73
2023-05-01T19:10:32.056Z,4.00
2023-05-01T19:13:02.009Z,5.13
2023-05-01T19:15:30.586Z,4.43
2023-05-01T19:17:59.262Z,4.80
2023-05-01T19:20:28.448Z,4.23
2023-05-01T19:22:57.524Z,5.20
2023-05-01T19:25:26.402Z,5.00
2023-05-01T19:27:57.466Z,5.80
2023-05-01T19:30:26.212Z,5.70
2023-05-01T19:32:54.879Z,6.30
2023-05-01T19:35:23.767Z,6.53
2023-05-01T19:37:56.774Z,5.67
2023-05-01T19:40:25.725Z,6.37
2023-05-01T19:42:55.807Z,6.00
2023-05-01T19:45:25.155Z,5.53
2023-05-01T19:47:53.768Z,6.13
2023-05-01T19:50:22.589Z,6.53
2023-05-01T19:52:51.416Z,5.57
2023-05-01T19:55:20.218Z,5.97
2023-05-01T19:57:49.070Z,6.07
2023-05-01T20:00:19.221Z,6.33
2023-05-01T20:02:48.054Z,6.50
2023-05-01T20:05:16.865Z,6.07
2023-05-01T20:07:45.693Z,6.73
2023-05-01T20:10:14.345Z,7.07
2023-05-01T20:12:43.315Z,6.80
2023-05-01T20:15:12.922Z,6.77
2023-05-01T20:17:43.363Z,6.70
2023-05-01T20:20:12.789Z,6.50
2023-05-01T20:22:41.364Z,6.57
2023-05-01T20:25:10.801Z,6.73
2023-05-01T20:27:40.218Z,6.43
2023-05-01T20:30:11.617Z,6.63
2023-05-01T20:32:42.641Z,5.93
2023-05-01T20:35:13.806Z,6.83
2023-05-01T20:37:42.268Z,6.60
2023-05-01T20:40:12.323Z,7.03
2023-05-01T20:42:41.200Z,6.47
2023-05-01T20:45:10.793Z,6.53
2023-05-01T20:47:39.402Z,6.80
2023-05-01T20:50:08.906Z,7.60
2023-05-01T20:52:39.008Z,6.77
2023-05-01T20:55:08.645Z,7.13
2023-05-01T20:57:37.406Z,7.43
2023-05-01T21:00:07.896Z,7.10
2023-05-01T21:02:38.836Z,6.87
2023-05-01T21:05:09.038Z,7.07
2023-05-01T21:07:39.843Z,5.73
2023-05-01T21:10:11.052Z,6.13
2023-05-01T21:12:39.914Z,6.30
2023-05-01T21:15:09.605Z,6.50
2023-05-01T21:17:38.386Z,6.10
2023-05-01T21:20:13.205Z,5.03
2023-05-01T21:22:45.508Z,4.90
2023-05-01T21:25:15.679Z,4.43
2023-05-01T21:27:44.151Z,3.97
2023-05-01T21:30:16.760Z,4.03
2023-05-01T21:32:45.396Z,3.87
2023-05-01T21:35:16.833Z,3.93
2023-05-01T21:37:48.007Z,4.30
2023-05-01T21:40:16.790Z,4.17
2023-05-01T21:42:45.701Z,3.77
2023-05-01T21:45:15.803Z,3.73
2023-05-01T21:47:46.808Z,3.40
2023-05-01T21:50:16.762Z,3.50
2023-05-01T21:52:47.751Z,3.30
2023-05-01T21:55:19.492Z,3.10
2023-05-01T21:57:49.805Z,3.37
2023-05-01T22:00:19.418Z,3.47
2023-05-01T22:02:49.830Z,3.90
2023-05-01T22:05:20.167Z,3.33
2023-05-01T22:07:51.392Z,3.40
2023-05-01T22:10:21.041Z,3.27
2023-05-01T22:12:50.330Z,3.57
2023-05-01T22:15:19.005Z,3.20
2023-05-01T22:17:47.534Z,3.17
2023-05-01T22:20:16.205Z,2.93
2023-05-01T22:22:44.644Z,3.50
2023-05-01T22:25:14.532Z,3.77
2023-05-01T22:27:43.019Z,2.90
2023-05-01T22:30:13.182Z,2.57
2023-05-01T22:32:41.657Z,3.17
2023-05-01T22:35:10.826Z,3.30
2023-05-01T22:37:39.639Z,3.77
2023-05-01T22:40:09.582Z,2.83
2023-05-01T22:42:39.564Z,2.83
2023-05-01T22:45:08.955Z,3.10
2023-05-01T22:47:37.519Z,3.37
2023-05-01T22:50:07.447Z,3.33
2023-05-01T22:52:36.479Z,3.03
2023-05-01T22:55:05.843Z,2.90
2023-05-01T22:57:34.592Z,3.57
2023-05-01T23:00:05.920Z,2.87
2023-05-01T23:02:34.794Z,3.00
2023-05-01T23:05:03.701Z,2.70
2023-05-01T23:07:32.344Z,3.10
2023-05-01T23:10:02.372Z,3.10
2023-05-01T23:12:31.692Z,3.20
2023-05-01T23:15:00.197Z,3.10
2023-05-01T23:17:35.230Z,3.60
2023-05-01T23:20:05.074Z,3.23
2023-05-01T23:22:34.230Z,3.50
2023-05-01T23:25:03.062Z,3.50
2023-05-01T23:27:35.673Z,3.40
2023-05-01T23:30:07.331Z,3.20
2023-05-01T23:32:37.390Z,2.73
2023-05-01T23:35:09.619Z,3.43
2023-05-01T23:37:38.250Z,3.27
2023-05-01T23:40:08.410Z,2.87
2023-05-01T23:42:38.367Z,3.80
2023-05-01T23:45:08.174Z,3.30
2023-05-01T23:47:38.783Z,3.83
2023-05-01T23:50:08.529Z,3.50
2023-05-01T23:52:37.282Z,3.90
2023-05-01T23:55:06.535Z,3.83
2023-05-01T23:57:35.158Z,3.87
